sensor_id;sensor_type;location;lat;lon;timestamp;P1;durP1;ratioP1;P2;durP2;ratioP2
16667;SDS011;8447;52.630;4.734;2024-02-16T00:00:02;2.87;;;1.93;;
16667;SDS011;8447;52.630;4.734;2024-02-16T00:02:29;2.17;;;1.83;;
16667;SDS011;8447;52.630;4.734;2024-02-16T00:04:57;4.90;;;3.40;;
16667;SDS011;8447;52.630;4.734;2024-02-16T00:07:23;5.60;;;1.70;;
16667;SDS011;8447;52.630;4.734;2024-02-16T00:09:50;3.57;;;2.00;;
16667;SDS011;8447;52.630;4.734;2024-02-16T00:12:16;4.10;;;1.90;;
16667;SDS011;8447;52.630;4.734;2024-02-16T00:14:43;2.87;;;1.90;;
16667;SDS011;8447;52.630;4.734;2024-02-16T00:17:12;4.30;;;2.10;;
16667;SDS011;8447;52.630;4.734;2024-02-16T00:19:38;2.70;;;1.83;;
16667;SDS011;8447;52.630;4.734;2024-02-16T00:22:05;3.90;;;2.23;;
16667;SDS011;8447;52.630;4.734;2024-02-16T00:24:32;2.87;;;1.80;;
16667;SDS011;8447;52.630;4.734;2024-02-16T00:27:00;6.63;;;2.03;;
16667;SDS011;8447;52.630;4.734;2024-02-16T00:29:26;4.23;;;1.97;;
16667;SDS011;8447;52.630;4.734;2024-02-16T00:31:53;2.50;;;1.80;;
16667;SDS011;8447;52.630;4.734;2024-02-16T00:34:22;5.77;;;2.33;;
16667;SDS011;8447;52.630;4.734;2024-02-16T00:36:48;3.20;;;1.80;;
16667;SDS011;8447;52.630;4.734;2024-02-16T00:39:14;2.53;;;1.90;;
16667;SDS011;8447;52.630;4.734;2024-02-16T00:41:41;3.33;;;1.83;;
16667;SDS011;8447;52.630;4.734;2024-02-16T00:44:07;5.57;;;2.00;;
16667;SDS011;8447;52.630;4.734;2024-02-16T00:46:35;2.80;;;2.03;;
16667;SDS011;8447;52.630;4.734;2024-02-16T00:49:01;3.13;;;2.03;;
16667;SDS011;8447;52.630;4.734;2024-02-16T00:51:29;3.83;;;2.07;;
16667;SDS011;8447;52.630;4.734;2024-02-16T00:53:55;4.87;;;1.83;;
16667;SDS011;8447;52.630;4.734;2024-02-16T00:56:22;3.97;;;1.67;;
16667;SDS011;8447;52.630;4.734;2024-02-16T00:58:48;2.43;;;1.90;;
16667;SDS011;8447;52.630;4.734;2024-02-16T01:01:15;5.13;;;2.30;;
16667;SDS011;8447;52.630;4.734;2024-02-16T01:03:41;2.53;;;1.80;;
16667;SDS011;8447;52.630;4.734;2024-02-16T01:06:08;2.13;;;1.60;;
16667;SDS011;8447;52.630;4.734;2024-02-16T01:08:36;2.97;;;2.10;;
16667;SDS011;8447;52.630;4.734;2024-02-16T01:11:03;2.47;;;1.60;;
16667;SDS011;8447;52.630;4.734;2024-02-16T01:13:29;2.20;;;1.90;;
16667;SDS011;8447;52.630;4.734;2024-02-16T01:15:57;2.47;;;1.73;;
16667;SDS011;8447;52.630;4.734;2024-02-16T01:18:24;4.40;;;2.17;;
16667;SDS011;8447;52.630;4.734;2024-02-16T01:20:51;4.23;;;1.90;;
16667;SDS011;8447;52.630;4.734;2024-02-16T01:23:17;2.53;;;1.97;;
16667;SDS011;8447;52.630;4.734;2024-02-16T01:25:45;4.30;;;1.93;;
16667;SDS011;8447;52.630;4.734;2024-02-16T01:28:12;3.77;;;1.70;;
16667;SDS011;8447;52.630;4.734;2024-02-16T01:30:38;3.87;;;2.07;;
16667;SDS011;8447;52.630;4.734;2024-02-16T01:33:05;3.80;;;2.00;;
16667;SDS011;8447;52.630;4.734;2024-02-16T01:35:32;2.67;;;1.90;;
16667;SDS011;8447;52.630;4.734;2024-02-16T01:37:58;3.70;;;1.87;;
16667;SDS011;8447;52.630;4.734;2024-02-16T01:40:25;3.70;;;1.97;;
16667;SDS011;8447;52.630;4.734;2024-02-16T01:42:53;4.17;;;2.20;;
16667;SDS011;8447;52.630;4.734;2024-02-16T01:45:19;3.00;;;2.03;;
16667;SDS011;8447;52.630;4.734;2024-02-16T01:47:47;4.20;;;2.27;;
16667;SDS011;8447;52.630;4.734;2024-02-16T01:50:15;4.90;;;1.90;;
16667;SDS011;8447;52.630;4.734;2024-02-16T01:52:42;3.60;;;2.30;;
16667;SDS011;8447;52.630;4.734;2024-02-16T01:55:09;3.07;;;2.00;;
16667;SDS011;8447;52.630;4.734;2024-02-16T01:57:35;5.30;;;2.00;;
16667;SDS011;8447;52.630;4.734;2024-02-16T02:00:03;3.97;;;2.17;;
16667;SDS011;8447;52.630;4.734;2024-02-16T02:02:32;2.93;;;1.90;;
16667;SDS011;8447;52.630;4.734;2024-02-16T02:04:59;2.10;;;1.80;;
16667;SDS011;8447;52.630;4.734;2024-02-16T02:07:25;2.83;;;2.00;;
16667;SDS011;8447;52.630;4.734;2024-02-16T02:09:52;4.43;;;2.33;;
16667;SDS011;8447;52.630;4.734;2024-02-16T02:12:19;3.87;;;2.27;;
16667;SDS011;8447;52.630;4.734;2024-02-16T02:14:45;2.60;;;1.73;;
16667;SDS011;8447;52.630;4.734;2024-02-16T02:17:13;3.53;;;2.03;;
16667;SDS011;8447;52.630;4.734;2024-02-16T02:19:39;4.40;;;2.13;;
16667;SDS011;8447;52.630;4.734;2024-02-16T02:22:10;2.37;;;1.73;;
16667;SDS011;8447;52.630;4.734;2024-02-16T02:24:37;5.60;;;1.70;;
16667;SDS011;8447;52.630;4.734;2024-02-16T02:27:03;2.20;;;1.90;;
16667;SDS011;8447;52.630;4.734;2024-02-16T02:29:29;2.87;;;1.87;;
16667;SDS011;8447;52.630;4.734;2024-02-16T02:31:56;1.57;;;1.47;;
16667;SDS011;8447;52.630;4.734;2024-02-16T02:34:22;3.20;;;1.97;;
16667;SDS011;8447;52.630;4.734;2024-02-16T02:36:48;2.40;;;1.60;;
16667;SDS011;8447;52.630;4.734;2024-02-16T02:39:16;4.03;;;1.77;;
16667;SDS011;8447;52.630;4.734;2024-02-16T02:41:42;4.33;;;2.07;;
16667;SDS011;8447;52.630;4.734;2024-02-16T02:44:09;2.70;;;1.60;;
16667;SDS011;8447;52.630;4.734;2024-02-16T02:46:36;4.70;;;2.30;;
16667;SDS011;8447;52.630;4.734;2024-02-16T02:49:02;4.20;;;2.37;;
16667;SDS011;8447;52.630;4.734;2024-02-16T02:51:28;3.47;;;2.00;;
16667;SDS011;8447;52.630;4.734;2024-02-16T02:53:55;3.07;;;2.00;;
16667;SDS011;8447;52.630;4.734;2024-02-16T02:56:22;3.97;;;2.07;;
16667;SDS011;8447;52.630;4.734;2024-02-16T02:58:49;5.13;;;2.30;;
16667;SDS011;8447;52.630;4.734;2024-02-16T03:01:15;2.70;;;2.00;;
16667;SDS011;8447;52.630;4.734;2024-02-16T03:03:44;8.00;;;2.03;;
16667;SDS011;8447;52.630;4.734;2024-02-16T03:06:11;1.83;;;1.70;;
16667;SDS011;8447;52.630;4.734;2024-02-16T03:08:38;2.73;;;1.90;;
16667;SDS011;8447;52.630;4.734;2024-02-16T03:11:04;4.73;;;1.67;;
16667;SDS011;8447;52.630;4.734;2024-02-16T03:13:32;3.33;;;2.07;;
16667;SDS011;8447;52.630;4.734;2024-02-16T03:15:59;2.60;;;1.90;;
16667;SDS011;8447;52.630;4.734;2024-02-16T03:18:28;2.73;;;2.00;;
16667;SDS011;8447;52.630;4.734;2024-02-16T03:20:55;4.97;;;2.00;;
16667;SDS011;8447;52.630;4.734;2024-02-16T03:23:22;4.17;;;2.03;;
16667;SDS011;8447;52.630;4.734;2024-02-16T03:25:48;2.77;;;2.13;;
16667;SDS011;8447;52.630;4.734;2024-02-16T03:28:15;2.67;;;1.83;;
16667;SDS011;8447;52.630;4.734;2024-02-16T03:30:43;4.17;;;2.17;;
16667;SDS011;8447;52.630;4.734;2024-02-16T03:33:10;3.97;;;1.83;;
16667;SDS011;8447;52.630;4.734;2024-02-16T03:35:36;2.57;;;2.17;;
16667;SDS011;8447;52.630;4.734;2024-02-16T03:38:03;3.10;;;1.90;;
16667;SDS011;8447;52.630;4.734;2024-02-16T03:40:30;5.57;;;2.30;;
16667;SDS011;8447;52.630;4.734;2024-02-16T03:42:56;3.60;;;1.60;;
16667;SDS011;8447;52.630;4.734;2024-02-16T03:45:23;3.60;;;2.00;;
16667;SDS011;8447;52.630;4.734;2024-02-16T03:47:53;2.40;;;2.10;;
16667;SDS011;8447;52.630;4.734;2024-02-16T03:50:19;2.97;;;2.20;;
16667;SDS011;8447;52.630;4.734;2024-02-16T03:52:46;2.43;;;2.00;;
16667;SDS011;8447;52.630;4.734;2024-02-16T03:55:12;2.57;;;1.80;;
16667;SDS011;8447;52.630;4.734;2024-02-16T03:57:39;2.80;;;1.90;;
16667;SDS011;8447;52.630;4.734;2024-02-16T04:00:06;4.13;;;2.00;;
16667;SDS011;8447;52.630;4.734;2024-02-16T04:02:33;4.70;;;2.57;;
16667;SDS011;8447;52.630;4.734;2024-02-16T04:05:02;3.67;;;2.30;;
16667;SDS011;8447;52.630;4.734;2024-02-16T04:07:29;2.87;;;1.90;;
16667;SDS011;8447;52.630;4.734;2024-02-16T04:09:55;4.80;;;2.20;;
16667;SDS011;8447;52.630;4.734;2024-02-16T04:12:22;3.73;;;2.20;;
16667;SDS011;8447;52.630;4.734;2024-02-16T04:14:48;3.40;;;2.20;;
16667;SDS011;8447;52.630;4.734;2024-02-16T04:17:14;3.73;;;2.17;;
16667;SDS011;8447;52.630;4.734;2024-02-16T04:19:41;2.57;;;1.83;;
16667;SDS011;8447;52.630;4.734;2024-02-16T04:22:09;3.80;;;2.43;;
16667;SDS011;8447;52.630;4.734;2024-02-16T04:24:35;4.33;;;2.03;;
16667;SDS011;8447;52.630;4.734;2024-02-16T04:27:01;2.63;;;2.03;;
16667;SDS011;8447;52.630;4.734;2024-02-16T04:29:28;4.53;;;2.33;;
16667;SDS011;8447;52.630;4.734;2024-02-16T04:31:54;2.47;;;2.00;;
16667;SDS011;8447;52.630;4.734;2024-02-16T04:34:20;4.43;;;2.37;;
16667;SDS011;8447;52.630;4.734;2024-02-16T04:36:47;3.40;;;2.07;;
16667;SDS011;8447;52.630;4.734;2024-02-16T04:39:15;5.07;;;2.23;;
16667;SDS011;8447;52.630;4.734;2024-02-16T04:41:42;2.47;;;1.80;;
16667;SDS011;8447;52.630;4.734;2024-02-16T04:44:08;6.20;;;2.40;;
16667;SDS011;8447;52.630;4.734;2024-02-16T04:46:35;3.73;;;2.30;;
16667;SDS011;8447;52.630;4.734;2024-02-16T04:49:01;2.10;;;1.90;;
16667;SDS011;8447;52.630;4.734;2024-02-16T04:51:27;4.33;;;2.00;;
16667;SDS011;8447;52.630;4.734;2024-02-16T04:53:54;5.60;;;2.37;;
16667;SDS011;8447;52.630;4.734;2024-02-16T04:56:22;3.60;;;2.50;;
16667;SDS011;8447;52.630;4.734;2024-02-16T04:58:49;4.13;;;2.20;;
16667;SDS011;8447;52.630;4.734;2024-02-16T05:01:15;4.57;;;1.97;;
16667;SDS011;8447;52.630;4.734;2024-02-16T05:03:42;2.37;;;1.87;;
16667;SDS011;8447;52.630;4.734;2024-02-16T05:06:08;3.33;;;1.97;;
16667;SDS011;8447;52.630;4.734;2024-02-16T05:08:34;2.77;;;2.00;;
16667;SDS011;8447;52.630;4.734;2024-02-16T05:11:01;7.47;;;2.63;;
16667;SDS011;8447;52.630;4.734;2024-02-16T05:13:28;3.67;;;2.10;;
16667;SDS011;8447;52.630;4.734;2024-02-16T05:15:55;5.40;;;1.93;;
16667;SDS011;8447;52.630;4.734;2024-02-16T05:18:21;2.57;;;2.00;;
16667;SDS011;8447;52.630;4.734;2024-02-16T05:20:47;4.10;;;2.30;;
16667;SDS011;8447;52.630;4.734;2024-02-16T05:23:14;3.37;;;1.87;;
16667;SDS011;8447;52.630;4.734;2024-02-16T05:25:40;2.03;;;1.83;;
16667;SDS011;8447;52.630;4.734;2024-02-16T05:28:07;2.77;;;2.00;;
16667;SDS011;8447;52.630;4.734;2024-02-16T05:30:34;3.40;;;2.20;;
16667;SDS011;8447;52.630;4.734;2024-02-16T05:33:01;3.00;;;2.30;;
16667;SDS011;8447;52.630;4.734;2024-02-16T05:35:28;3.43;;;2.10;;
16667;SDS011;8447;52.630;4.734;2024-02-16T05:37:58;3.13;;;2.00;;
16667;SDS011;8447;52.630;4.734;2024-02-16T05:40:32;2.43;;;2.23;;
16667;SDS011;8447;52.630;4.734;2024-02-16T05:43:10;3.97;;;2.50;;
16667;SDS011;8447;52.630;4.734;2024-02-16T05:45:38;2.30;;;1.93;;
16667;SDS011;8447;52.630;4.734;2024-02-16T05:48:06;3.83;;;2.40;;
16667;SDS011;8447;52.630;4.734;2024-02-16T05:50:35;7.17;;;2.93;;
16667;SDS011;8447;52.630;4.734;2024-02-16T05:53:01;2.83;;;2.30;;
16667;SDS011;8447;52.630;4.734;2024-02-16T05:55:28;3.00;;;2.47;;
16667;SDS011;8447;52.630;4.734;2024-02-16T05:57:54;6.63;;;3.07;;
16667;SDS011;8447;52.630;4.734;2024-02-16T06:00:21;4.50;;;2.47;;
16667;SDS011;8447;52.630;4.734;2024-02-16T06:02:49;4.60;;;2.40;;
16667;SDS011;8447;52.630;4.734;2024-02-16T06:05:16;6.70;;;2.53;;
16667;SDS011;8447;52.630;4.734;2024-02-16T06:07:45;4.10;;;2.50;;
16667;SDS011;8447;52.630;4.734;2024-02-16T06:10:11;5.47;;;2.80;;
16667;SDS011;8447;52.630;4.734;2024-02-16T06:12:38;4.53;;;2.63;;
16667;SDS011;8447;52.630;4.734;2024-02-16T06:15:04;5.90;;;3.00;;
16667;SDS011;8447;52.630;4.734;2024-02-16T06:17:31;7.23;;;2.97;;
16667;SDS011;8447;52.630;4.734;2024-02-16T06:19:59;5.97;;;2.70;;
16667;SDS011;8447;52.630;4.734;2024-02-16T06:22:25;7.53;;;3.07;;
16667;SDS011;8447;52.630;4.734;2024-02-16T06:24:51;7.33;;;2.53;;
16667;SDS011;8447;52.630;4.734;2024-02-16T06:27:18;7.00;;;2.47;;
16667;SDS011;8447;52.630;4.734;2024-02-16T06:29:44;5.67;;;3.43;;
16667;SDS011;8447;52.630;4.734;2024-02-16T06:32:12;5.13;;;2.90;;
16667;SDS011;8447;52.630;4.734;2024-02-16T06:34:39;3.77;;;2.50;;
16667;SDS011;8447;52.630;4.734;2024-02-16T06:37:07;6.50;;;2.90;;
16667;SDS011;8447;52.630;4.734;2024-02-16T06:39:33;12.07;;;3.30;;
16667;SDS011;8447;52.630;4.734;2024-02-16T06:42:00;11.10;;;3.97;;
16667;SDS011;8447;52.630;4.734;2024-02-16T06:44:26;6.87;;;2.90;;
16667;SDS011;8447;52.630;4.734;2024-02-16T06:46:52;6.40;;;3.03;;
16667;SDS011;8447;52.630;4.734;2024-02-16T06:49:19;4.77;;;2.70;;
16667;SDS011;8447;52.630;4.734;2024-02-16T06:51:45;5.17;;;2.20;;
16667;SDS011;8447;52.630;4.734;2024-02-16T06:54:13;7.60;;;3.00;;
16667;SDS011;8447;52.630;4.734;2024-02-16T06:56:39;5.80;;;3.00;;
16667;SDS011;8447;52.630;4.734;2024-02-16T06:59:06;3.87;;;2.47;;
16667;SDS011;8447;52.630;4.734;2024-02-16T07:01:32;4.73;;;2.70;;
16667;SDS011;8447;52.630;4.734;2024-02-16T07:03:58;3.97;;;2.67;;
16667;SDS011;8447;52.630;4.734;2024-02-16T07:06:26;6.27;;;3.40;;
16667;SDS011;8447;52.630;4.734;2024-02-16T07:08:53;6.10;;;2.83;;
16667;SDS011;8447;52.630;4.734;2024-02-16T07:11:21;3.13;;;2.50;;
16667;SDS011;8447;52.630;4.734;2024-02-16T07:13:47;4.57;;;2.87;;
16667;SDS011;8447;52.630;4.734;2024-02-16T07:16:13;3.43;;;2.77;;
16667;SDS011;8447;52.630;4.734;2024-02-16T07:18:40;3.43;;;2.37;;
16667;SDS011;8447;52.630;4.734;2024-02-16T07:21:07;7.40;;;2.90;;
16667;SDS011;8447;52.630;4.734;2024-02-16T07:23:34;7.37;;;3.37;;
16667;SDS011;8447;52.630;4.734;2024-02-16T07:26:00;7.17;;;2.43;;
16667;SDS011;8447;52.630;4.734;2024-02-16T07:28:29;3.93;;;2.43;;
16667;SDS011;8447;52.630;4.734;2024-02-16T07:30:55;6.07;;;2.77;;
16667;SDS011;8447;52.630;4.734;2024-02-16T07:33:22;4.23;;;2.60;;
16667;SDS011;8447;52.630;4.734;2024-02-16T07:35:49;2.97;;;2.40;;
16667;SDS011;8447;52.630;4.734;2024-02-16T07:38:16;3.93;;;2.83;;
16667;SDS011;8447;52.630;4.734;2024-02-16T07:40:42;3.97;;;2.93;;
16667;SDS011;8447;52.630;4.734;2024-02-16T07:43:10;3.00;;;2.53;;
16667;SDS011;8447;52.630;4.734;2024-02-16T07:45:38;7.10;;;3.13;;
16667;SDS011;8447;52.630;4.734;2024-02-16T07:48:05;4.30;;;2.67;;
16667;SDS011;8447;52.630;4.734;2024-02-16T07:50:32;5.50;;;2.57;;
16667;SDS011;8447;52.630;4.734;2024-02-16T07:52:59;3.37;;;2.37;;
16667;SDS011;8447;52.630;4.734;2024-02-16T07:55:26;5.57;;;2.53;;
16667;SDS011;8447;52.630;4.734;2024-02-16T07:57:52;3.47;;;2.63;;
16667;SDS011;8447;52.630;4.734;2024-02-16T08:00:19;5.90;;;2.80;;
16667;SDS011;8447;52.630;4.734;2024-02-16T08:02:46;3.47;;;2.80;;
16667;SDS011;8447;52.630;4.734;2024-02-16T08:05:13;8.97;;;3.13;;
16667;SDS011;8447;52.630;4.734;2024-02-16T08:07:40;5.47;;;3.43;;
16667;SDS011;8447;52.630;4.734;2024-02-16T08:10:07;8.50;;;3.50;;
16667;SDS011;8447;52.630;4.734;2024-02-16T08:12:34;4.77;;;2.80;;
16667;SDS011;8447;52.630;4.734;2024-02-16T08:15:00;7.87;;;3.40;;
16667;SDS011;8447;52.630;4.734;2024-02-16T08:17:27;6.67;;;3.10;;
16667;SDS011;8447;52.630;4.734;2024-02-16T08:19:54;5.53;;;2.67;;
16667;SDS011;8447;52.630;4.734;2024-02-16T08:22:21;8.20;;;2.97;;
16667;SDS011;8447;52.630;4.734;2024-02-16T08:24:47;9.27;;;3.00;;
16667;SDS011;8447;52.630;4.734;2024-02-16T08:27:15;5.60;;;3.20;;
16667;SDS011;8447;52.630;4.734;2024-02-16T08:29:41;4.83;;;3.00;;
16667;SDS011;8447;52.630;4.734;2024-02-16T08:32:07;8.43;;;3.00;;
16667;SDS011;8447;52.630;4.734;2024-02-16T08:34:34;5.50;;;3.00;;
16667;SDS011;8447;52.630;4.734;2024-02-16T08:37:03;7.67;;;3.07;;
16667;SDS011;8447;52.630;4.734;2024-02-16T08:39:30;4.43;;;2.87;;
16667;SDS011;8447;52.630;4.734;2024-02-16T08:41:56;11.77;;;3.10;;
16667;SDS011;8447;52.630;4.734;2024-02-16T08:44:23;7.47;;;2.70;;
16667;SDS011;8447;52.630;4.734;2024-02-16T08:46:49;7.20;;;3.03;;
16667;SDS011;8447;52.630;4.734;2024-02-16T08:49:16;4.70;;;3.10;;
16667;SDS011;8447;52.630;4.734;2024-02-16T08:51:42;10.10;;;3.67;;
16667;SDS011;8447;52.630;4.734;2024-02-16T08:54:10;9.03;;;3.23;;
16667;SDS011;8447;52.630;4.734;2024-02-16T08:56:37;6.03;;;3.37;;
16667;SDS011;8447;52.630;4.734;2024-02-16T08:59:04;5.63;;;2.97;;
16667;SDS011;8447;52.630;4.734;2024-02-16T09:01:30;6.50;;;3.17;;
16667;SDS011;8447;52.630;4.734;2024-02-16T09:03:57;10.00;;;3.70;;
16667;SDS011;8447;52.630;4.734;2024-02-16T09:06:23;12.77;;;4.10;;
16667;SDS011;8447;52.630;4.734;2024-02-16T09:08:51;9.83;;;3.77;;
16667;SDS011;8447;52.630;4.734;2024-02-16T09:11:19;10.10;;;3.50;;
16667;SDS011;8447;52.630;4.734;2024-02-16T09:13:45;11.87;;;4.07;;
16667;SDS011;8447;52.630;4.734;2024-02-16T09:16:12;11.23;;;4.37;;
16667;SDS011;8447;52.630;4.734;2024-02-16T09:18:38;11.77;;;3.87;;
16667;SDS011;8447;52.630;4.734;2024-02-16T09:21:05;7.83;;;3.13;;
16667;SDS011;8447;52.630;4.734;2024-02-16T09:23:31;13.47;;;4.87;;
16667;SDS011;8447;52.630;4.734;2024-02-16T09:25:58;11.30;;;3.97;;
16667;SDS011;8447;52.630;4.734;2024-02-16T09:28:27;13.27;;;4.33;;
16667;SDS011;8447;52.630;4.734;2024-02-16T09:30:53;14.33;;;3.90;;
16667;SDS011;8447;52.630;4.734;2024-02-16T09:33:20;13.97;;;4.47;;
16667;SDS011;8447;52.630;4.734;2024-02-16T09:35:46;10.53;;;3.50;;
16667;SDS011;8447;52.630;4.734;2024-02-16T09:38:13;10.90;;;4.37;;
16667;SDS011;8447;52.630;4.734;2024-02-16T09:40:39;11.57;;;4.50;;
16667;SDS011;8447;52.630;4.734;2024-02-16T09:43:06;13.83;;;4.07;;
16667;SDS011;8447;52.630;4.734;2024-02-16T09:45:34;9.83;;;3.93;;
16667;SDS011;8447;52.630;4.734;2024-02-16T09:48:00;7.90;;;4.73;;
16667;SDS011;8447;52.630;4.734;2024-02-16T09:50:27;11.47;;;4.40;;
16667;SDS011;8447;52.630;4.734;2024-02-16T09:52:54;9.43;;;3.93;;
16667;SDS011;8447;52.630;4.734;2024-02-16T09:55:20;9.13;;;4.20;;
16667;SDS011;8447;52.630;4.734;2024-02-16T09:57:57;9.50;;;4.70;;
16667;SDS011;8447;52.630;4.734;2024-02-16T10:00:24;8.17;;;4.03;;
16667;SDS011;8447;52.630;4.734;2024-02-16T10:02:51;7.40;;;4.30;;
16667;SDS011;8447;52.630;4.734;2024-02-16T10:05:19;9.87;;;3.40;;
16667;SDS011;8447;52.630;4.734;2024-02-16T10:07:45;9.43;;;4.30;;
16667;SDS011;8447;52.630;4.734;2024-02-16T10:10:21;4.40;;;2.77;;
16667;SDS011;8447;52.630;4.734;2024-02-16T10:12:48;6.50;;;3.67;;
16667;SDS011;8447;52.630;4.734;2024-02-16T10:15:18;6.63;;;3.53;;
16667;SDS011;8447;52.630;4.734;2024-02-16T10:17:45;6.43;;;3.33;;
16667;SDS011;8447;52.630;4.734;2024-02-16T10:20:18;5.63;;;3.00;;
16667;SDS011;8447;52.630;4.734;2024-02-16T10:22:45;6.47;;;2.97;;
16667;SDS011;8447;52.630;4.734;2024-02-16T10:25:11;11.40;;;4.37;;
16667;SDS011;8447;52.630;4.734;2024-02-16T10:27:38;7.90;;;3.73;;
16667;SDS011;8447;52.630;4.734;2024-02-16T10:30:07;8.60;;;3.63;;
16667;SDS011;8447;52.630;4.734;2024-02-16T10:32:35;9.83;;;3.53;;
16667;SDS011;8447;52.630;4.734;2024-02-16T10:35:02;5.50;;;3.00;;
16667;SDS011;8447;52.630;4.734;2024-02-16T10:37:32;5.17;;;3.00;;
16667;SDS011;8447;52.630;4.734;2024-02-16T10:39:58;4.80;;;2.60;;
16667;SDS011;8447;52.630;4.734;2024-02-16T10:42:25;6.33;;;2.50;;
16667;SDS011;8447;52.630;4.734;2024-02-16T10:44:53;4.97;;;2.40;;
16667;SDS011;8447;52.630;4.734;2024-02-16T10:47:20;4.13;;;2.23;;
16667;SDS011;8447;52.630;4.734;2024-02-16T10:49:46;3.17;;;1.53;;
16667;SDS011;8447;52.630;4.734;2024-02-16T10:52:13;3.10;;;2.57;;
16667;SDS011;8447;52.630;4.734;2024-02-16T10:54:41;4.80;;;2.33;;
16667;SDS011;8447;52.630;4.734;2024-02-16T10:57:08;5.07;;;2.17;;
16667;SDS011;8447;52.630;4.734;2024-02-16T10:59:41;3.13;;;1.53;;
16667;SDS011;8447;52.630;4.734;2024-02-16T11:02:08;4.37;;;1.47;;
16667;SDS011;8447;52.630;4.734;2024-02-16T11:04:36;2.57;;;1.50;;
16667;SDS011;8447;52.630;4.734;2024-02-16T11:07:09;4.07;;;1.47;;
16667;SDS011;8447;52.630;4.734;2024-02-16T11:09:38;3.13;;;1.20;;
16667;SDS011;8447;52.630;4.734;2024-02-16T11:12:06;3.53;;;1.33;;
16667;SDS011;8447;52.630;4.734;2024-02-16T11:14:36;3.97;;;1.30;;
16667;SDS011;8447;52.630;4.734;2024-02-16T11:17:06;4.60;;;1.43;;
16667;SDS011;8447;52.630;4.734;2024-02-16T11:19:33;3.23;;;0.90;;
16667;SDS011;8447;52.630;4.734;2024-02-16T11:22:02;4.77;;;1.30;;
16667;SDS011;8447;52.630;4.734;2024-02-16T11:24:32;5.10;;;1.27;;
16667;SDS011;8447;52.630;4.734;2024-02-16T11:27:01;2.97;;;0.87;;
16667;SDS011;8447;52.630;4.734;2024-02-16T11:29:31;1.33;;;1.10;;
16667;SDS011;8447;52.630;4.734;2024-02-16T11:31:58;3.87;;;1.07;;
16667;SDS011;8447;52.630;4.734;2024-02-16T11:34:25;3.63;;;0.83;;
16667;SDS011;8447;52.630;4.734;2024-02-16T11:36:52;3.23;;;1.37;;
16667;SDS011;8447;52.630;4.734;2024-02-16T11:39:19;2.20;;;1.10;;
16667;SDS011;8447;52.630;4.734;2024-02-16T11:41:46;5.13;;;1.10;;
16667;SDS011;8447;52.630;4.734;2024-02-16T11:44:12;1.90;;;1.30;;
16667;SDS011;8447;52.630;4.734;2024-02-16T11:46:42;3.00;;;1.20;;
16667;SDS011;8447;52.630;4.734;2024-02-16T11:49:09;2.07;;;1.17;;
16667;SDS011;8447;52.630;4.734;2024-02-16T11:51:36;2.57;;;1.20;;
16667;SDS011;8447;52.630;4.734;2024-02-16T11:54:04;1.80;;;1.30;;
16667;SDS011;8447;52.630;4.734;2024-02-16T11:56:31;4.73;;;1.50;;
16667;SDS011;8447;52.630;4.734;2024-02-16T11:58:57;2.30;;;1.07;;
16667;SDS011;8447;52.630;4.734;2024-02-16T12:01:23;3.23;;;1.47;;
16667;SDS011;8447;52.630;4.734;2024-02-16T12:03:52;3.33;;;1.50;;
16667;SDS011;8447;52.630;4.734;2024-02-16T12:06:21;6.43;;;1.60;;
16667;SDS011;8447;52.630;4.734;2024-02-16T12:08:47;4.43;;;1.10;;
16667;SDS011;8447;52.630;4.734;2024-02-16T12:11:16;4.27;;;1.57;;
16667;SDS011;8447;52.630;4.734;2024-02-16T12:13:42;5.43;;;1.70;;
16667;SDS011;8447;52.630;4.734;2024-02-16T12:16:10;3.53;;;1.40;;
16667;SDS011;8447;52.630;4.734;2024-02-16T12:18:37;5.10;;;1.60;;
16667;SDS011;8447;52.630;4.734;2024-02-16T12:21:06;5.67;;;1.27;;
16667;SDS011;8447;52.630;4.734;2024-02-16T12:23:33;5.63;;;1.43;;
16667;SDS011;8447;52.630;4.734;2024-02-16T12:25:59;1.80;;;1.20;;
16667;SDS011;8447;52.630;4.734;2024-02-16T12:28:27;5.73;;;1.87;;
16667;SDS011;8447;52.630;4.734;2024-02-16T12:30:54;5.30;;;1.60;;
16667;SDS011;8447;52.630;4.734;2024-02-16T12:33:20;4.10;;;2.00;;
16667;SDS011;8447;52.630;4.734;2024-02-16T12:35:47;8.47;;;2.30;;
16667;SDS011;8447;52.630;4.734;2024-02-16T12:38:14;7.27;;;1.87;;
16667;SDS011;8447;52.630;4.734;2024-02-16T12:40:42;4.60;;;2.23;;
16667;SDS011;8447;52.630;4.734;2024-02-16T12:43:08;6.37;;;1.90;;
16667;SDS011;8447;52.630;4.734;2024-02-16T12:45:36;6.90;;;2.33;;
16667;SDS011;8447;52.630;4.734;2024-02-16T12:48:02;7.13;;;1.60;;
16667;SDS011;8447;52.630;4.734;2024-02-16T12:50:29;4.80;;;1.87;;
16667;SDS011;8447;52.630;4.734;2024-02-16T12:52:55;5.03;;;1.57;;
16667;SDS011;8447;52.630;4.734;2024-02-16T12:55:23;4.53;;;1.67;;
16667;SDS011;8447;52.630;4.734;2024-02-16T12:57:50;4.67;;;1.30;;
16667;SDS011;8447;52.630;4.734;2024-02-16T13:00:16;8.13;;;1.73;;
16667;SDS011;8447;52.630;4.734;2024-02-16T13:02:43;2.63;;;1.30;;
16667;SDS011;8447;52.630;4.734;2024-02-16T13:05:09;4.60;;;1.40;;
16667;SDS011;8447;52.630;4.734;2024-02-16T13:07:36;7.20;;;1.20;;
16667;SDS011;8447;52.630;4.734;2024-02-16T13:10:05;5.80;;;1.20;;
16667;SDS011;8447;52.630;4.734;2024-02-16T13:12:33;4.87;;;1.23;;
16667;SDS011;8447;52.630;4.734;2024-02-16T13:15:00;3.63;;;1.57;;
16667;SDS011;8447;52.630;4.734;2024-02-16T13:17:27;4.80;;;1.43;;
16667;SDS011;8447;52.630;4.734;2024-02-16T13:19:53;5.40;;;1.77;;
16667;SDS011;8447;52.630;4.734;2024-02-16T13:22:20;5.33;;;1.00;;
16667;SDS011;8447;52.630;4.734;2024-02-16T13:24:46;7.00;;;2.20;;
16667;SDS011;8447;52.630;4.734;2024-02-16T13:27:12;3.93;;;1.27;;
16667;SDS011;8447;52.630;4.734;2024-02-16T13:29:40;5.10;;;1.63;;
16667;SDS011;8447;52.630;4.734;2024-02-16T13:32:07;5.87;;;2.00;;
16667;SDS011;8447;52.630;4.734;2024-02-16T13:34:33;5.37;;;2.37;;
16667;SDS011;8447;52.630;4.734;2024-02-16T13:36:59;6.97;;;2.10;;
16667;SDS011;8447;52.630;4.734;2024-02-16T13:39:26;5.13;;;2.17;;
16667;SDS011;8447;52.630;4.734;2024-02-16T13:41:52;7.50;;;2.30;;
16667;SDS011;8447;52.630;4.734;2024-02-16T13:44:19;3.97;;;2.13;;
16667;SDS011;8447;52.630;4.734;2024-02-16T13:46:47;8.93;;;2.67;;
16667;SDS011;8447;52.630;4.734;2024-02-16T13:49:14;5.93;;;2.50;;
16667;SDS011;8447;52.630;4.734;2024-02-16T13:51:40;3.57;;;2.00;;
16667;SDS011;8447;52.630;4.734;2024-02-16T13:54:07;8.37;;;2.30;;
16667;SDS011;8447;52.630;4.734;2024-02-16T13:56:33;6.33;;;2.60;;
16667;SDS011;8447;52.630;4.734;2024-02-16T13:59:01;6.63;;;2.27;;
16667;SDS011;8447;52.630;4.734;2024-02-16T14:01:28;4.87;;;2.97;;
16667;SDS011;8447;52.630;4.734;2024-02-16T14:03:56;4.67;;;2.27;;
16667;SDS011;8447;52.630;4.734;2024-02-16T14:06:22;10.13;;;2.97;;
16667;SDS011;8447;52.630;4.734;2024-02-16T14:08:51;6.50;;;2.07;;
16667;SDS011;8447;52.630;4.734;2024-02-16T14:11:18;8.27;;;2.57;;
16667;SDS011;8447;52.630;4.734;2024-02-16T14:13:44;7.80;;;2.57;;
16667;SDS011;8447;52.630;4.734;2024-02-16T14:16:11;9.73;;;3.00;;
16667;SDS011;8447;52.630;4.734;2024-02-16T14:18:37;6.93;;;2.80;;
16667;SDS011;8447;52.630;4.734;2024-02-16T14:21:05;6.27;;;2.67;;
16667;SDS011;8447;52.630;4.734;2024-02-16T14:23:32;6.73;;;2.97;;
16667;SDS011;8447;52.630;4.734;2024-02-16T14:25:58;8.03;;;2.97;;
16667;SDS011;8447;52.630;4.734;2024-02-16T14:28:25;6.67;;;3.17;;
16667;SDS011;8447;52.630;4.734;2024-02-16T14:30:51;5.47;;;2.93;;
16667;SDS011;8447;52.630;4.734;2024-02-16T14:33:18;5.43;;;3.10;;
16667;SDS011;8447;52.630;4.734;2024-02-16T14:35:45;7.47;;;3.10;;
16667;SDS011;8447;52.630;4.734;2024-02-16T14:38:14;10.63;;;3.67;;
16667;SDS011;8447;52.630;4.734;2024-02-16T14:40:41;5.67;;;2.70;;
16667;SDS011;8447;52.630;4.734;2024-02-16T14:43:07;5.70;;;2.77;;
16667;SDS011;8447;52.630;4.734;2024-02-16T14:45:34;5.60;;;2.90;;
16667;SDS011;8447;52.630;4.734;2024-02-16T14:48:03;5.37;;;2.20;;
16667;SDS011;8447;52.630;4.734;2024-02-16T14:50:30;6.97;;;2.70;;
16667;SDS011;8447;52.630;4.734;2024-02-16T14:52:57;10.83;;;2.47;;
16667;SDS011;8447;52.630;4.734;2024-02-16T14:55:25;4.13;;;2.47;;
16667;SDS011;8447;52.630;4.734;2024-02-16T14:57:51;5.43;;;1.97;;